This is the latest recevied weather packets stored in our database for station/object KD9IXX-13. If no packets are shown the sender has not sent any weather packets the latest 10 day(s).
| Time | Temp. | Humidity | Pressure | Rain* | Wind** | Luminosity | Snow |
|---|---|---|---|---|---|---|---|
| 1787623501 | 18.89° C | 83% | 1020.5 hPa | 0 mm | - | 0 W/m² | - |
| 1787623202 | 18.89° C | 83% | 1020.7 hPa | 0 mm | - | 0 W/m² | - |
| 1787622902 | 18.89° C | 83% | 1020.3 hPa | 0 mm | - | 0 W/m² | - |
| 1787622603 | 19.44° C | 82% | 1020.5 hPa | 0 mm | - | 0 W/m² | - |
| 1787622302 | 19.44° C | 82% | 1020.2 hPa | 0 mm | - | 0 W/m² | - |
| 1787622002 | 19.44° C | 81% | 1020.4 hPa | 0 mm | - | 0 W/m² | - |
| 1787621701 | 19.44° C | 81% | 1020 hPa | 0 mm | - | 0 W/m² | - |
| 1787620801 | 19.44° C | 81% | 1020.1 hPa | 0 mm | - | 0 W/m² | - |
| 1787620202 | 20° C | 80% | 1020.1 hPa | 0 mm | - | 0 W/m² | - |
| 1787619302 | 20.56° C | 78% | 1019.7 hPa | 0 mm | - | 0 W/m² | - |
| 1787619002 | 20.56° C | 78% | 1019.6 hPa | 0 mm | - | 0 W/m² | - |
| 1787618402 | 21.11° C | 76% | 1019.6 hPa | 0 mm | - | 1 W/m² | - |
| 1787618102 | 21.11° C | 76% | 1019.6 hPa | 0 mm | - | 4 W/m² | - |
| 1787617502 | 21.11° C | 74% | 1019.4 hPa | 0 mm | - | 8 W/m² | - |
| 1787616902 | 21.67° C | 74% | 1019.3 hPa | 0 mm | - | 13 W/m² | - |
| 1787616602 | 21.67° C | 73% | 1019.5 hPa | 0 mm | - | 15 W/m² | - |
| 1787615702 | 22.78° C | 70% | 1019.5 hPa | 0 mm | - | 26 W/m² | - |
| 1787615402 | 22.78° C | 71% | 1019.3 hPa | 0 mm | - | 28 W/m² | - |
| 1787613601 | 25.56° C | 49% | 1019.5 hPa | 0 mm | - | 56 W/m² | - |
| 1787613002 | 25.56° C | 52% | 1019.5 hPa | 0 mm | - | 90 W/m² | - |
| 1787612702 | 25.56° C | 51% | 1019.5 hPa | 0 mm | - | 100 W/m² | - |
| 1787612102 | 25.56° C | 50% | 1019.5 hPa | 0 mm | - | 118 W/m² | - |
| 1787610602 | 26.11° C | 51% | 1019.5 hPa | 0 mm | - | 205 W/m² | - |
| 1787610302 | 26.11° C | 49% | 1019.4 hPa | 0 mm | - | 231 W/m² | - |
| 1787610002 | 26.11° C | 50% | 1019.5 hPa | 0 mm | - | 258 W/m² | - |
* Rain latest hour (hover to see other rain measurements)
** Current wind speed in m/s (hover to see current wind gust speed)